Hauptseite
METAR-TAF:

METAR-TAF

Flughäfen :

Kauai Test Facility

Kekaha, Hawaii, Vereinigte Staaten

Breite: 22-02-11N, Länge: 159-47-11W, Höhe: 4 m

Beobachtung

Neuester Wetterbericht von vor 2 Stunden und 5 Minuten, um 14:14 UTC
Wind 12 kt aus Nord/Nordost
Temperatur 22°C
Luftfeuchtigkeit 78%
Luftdruck 1013 hPa
Sichtweite: 16.1 km
Leicht bewölkt in der Höhe von 2300 ft
Aufgelockert bewölkt in der Höhe von 3200 ft
Geschlossene Wolkendecke in der Höhe von 6500 ft

METAR: PHBK 161414Z AUTO 02012KT 10SM FEW023 SCT032 OVC065 22/18 A2991 RMK AO2 RAE1356 P0000 T02220183

Zeit: 06:19 (16:19 UTC)


TAF: fehlend

Wetterbeobachtungen und Prognosen von mehr als 4000 Flughäfen (METAR und TAF Bericht).

Die verfügbaren Stationen werden durch gelbe und rote Markierungen auf der Karte dargestellt.

Führen Sie die Maus auf sie, um den Namen der Station zu sehen.

Darauf klicken, um die Beobachtung von Wetterbeobachtungen und Prognosen zu sehen.

Um die Karte zu ändern : klicken Sie auf den grünen Tasten mit einem schwarzen Kreuz Zum Vergrößern, auf den grünen Button mit einem Gedankenstrich zu verkleinern, oder auf die grünen Pfeile für benachbarte Karten.


METAR-TAF: